Time;durP1;ratioP1;P1;durP2;ratioP2;P2;SDS_P1;SDS_P2;PMS_P1;PMS_P2;Temp;Humidity;BMP_temperature;BMP_pressure;BME280_temperature;BME280_humidity;BME280_pressure;Samples;Min_cycle;Max_cycle;Signal;HPM_P1;HPM_P2
2021/04/14 00:01:10;;;;;;;7.95;4.50;;;;;;;;;;5021536;28;20480;-70
2021/04/14 00:03:36;;;;;;;8.38;4.30;;;;;;;;;;5021310;28;20505;-70
2021/04/14 00:06:02;;;;;;;7.03;4.30;;;;;;;;;;5021744;28;20781;-70
2021/04/14 00:08:30;;;;;;;8.07;4.00;;;;;;;;;;5022036;28;20497;-70
2021/04/14 00:10:56;;;;;;;5.97;3.97;;;;;;;;;;5022525;28;20398;-70
2021/04/14 00:13:24;;;;;;;7.78;4.38;;;;;;;;;;5019421;28;20415;-71
2021/04/14 00:15:51;;;;;;;7.65;4.45;;;;;;;;;;5022992;28;20467;-70
2021/04/14 00:18:18;;;;;;;6.82;4.30;;;;;;;;;;5022668;28;20772;-70
2021/04/14 00:20:44;;;;;;;8.27;4.40;;;;;;;;;;5022501;28;20399;-70
2021/04/14 00:23:11;;;;;;;8.35;4.35;;;;;;;;;;5023267;28;20453;-70
2021/04/14 00:25:42;;;;;;;7.63;4.82;;;;;;;;;;5023299;28;20399;-70
2021/04/14 00:28:10;;;;;;;9.30;5.47;;;;;;;;;;5022053;28;20903;-70
2021/04/14 00:30:36;;;;;;;8.13;4.82;;;;;;;;;;5022748;28;20541;-70
2021/04/14 00:33:02;;;;;;;10.03;4.83;;;;;;;;;;5022654;28;20496;-70
2021/04/14 00:35:28;;;;;;;7.22;4.82;;;;;;;;;;5022387;28;20422;-70
2021/04/14 00:37:54;;;;;;;7.82;4.60;;;;;;;;;;5021260;28;20752;-70
2021/04/14 00:40:23;;;;;;;8.07;4.78;;;;;;;;;;5022252;28;20478;-70
2021/04/14 00:42:49;;;;;;;7.97;4.78;;;;;;;;;;5022532;28;20432;-70
2021/04/14 00:45:16;;;;;;;7.97;4.50;;;;;;;;;;5021300;28;20404;-70
2021/04/14 00:47:42;;;;;;;7.47;4.60;;;;;;;;;;5018917;28;20452;-70
2021/04/14 00:50:09;;;;;;;7.80;4.60;;;;;;;;;;5022065;28;20734;-70
2021/04/14 00:52:35;;;;;;;7.70;4.57;;;;;;;;;;5020686;28;20496;-70
2021/04/14 00:55:01;;;;;;;7.30;4.70;;;;;;;;;;5019371;28;20739;-70
2021/04/14 00:57:27;;;;;;;8.75;5.07;;;;;;;;;;5021603;28;20431;-69
2021/04/14 00:59:53;;;;;;;8.40;4.82;;;;;;;;;;5019069;28;20403;-70
2021/04/14 01:02:19;;;;;;;8.32;5.35;;;;;;;;;;5016670;28;20411;-69
2021/04/14 01:04:45;;;;;;;9.00;5.13;;;;;;;;;;5021991;28;20486;-69
2021/04/14 01:07:11;;;;;;;8.75;4.88;;;;;;;;;;5020059;28;20860;-70
2021/04/14 01:09:37;;;;;;;7.93;4.82;;;;;;;;;;5021452;28;20399;-69
2021/04/14 01:12:03;;;;;;;6.68;4.68;;;;;;;;;;5020010;28;20920;-70
2021/04/14 01:14:29;;;;;;;7.38;4.68;;;;;;;;;;5020529;28;20462;-69
2021/04/14 01:16:55;;;;;;;7.50;4.60;;;;;;;;;;5019918;28;20445;-70
2021/04/14 01:19:21;;;;;;;7.18;4.55;;;;;;;;;;5019855;28;20414;-70
2021/04/14 01:21:47;;;;;;;7.70;5.00;;;;;;;;;;5020847;28;21506;-69
2021/04/14 01:24:14;;;;;;;10.20;5.35;;;;;;;;;;5020990;28;20418;-70
2021/04/14 01:26:40;;;;;;;8.25;5.43;;;;;;;;;;5020810;28;20404;-71
2021/04/14 01:29:07;;;;;;;9.30;5.70;;;;;;;;;;5020291;28;20473;-70
2021/04/14 01:31:33;;;;;;;10.73;6.28;;;;;;;;;;5019902;28;20410;-71
2021/04/14 01:34:00;;;;;;;9.40;5.60;;;;;;;;;;5017721;28;20497;-70
2021/04/14 01:36:26;;;;;;;8.93;5.45;;;;;;;;;;5022137;28;20399;-69
2021/04/14 01:38:52;;;;;;;10.05;6.82;;;;;;;;;;5020250;28;20395;-70
2021/04/14 01:41:19;;;;;;;10.32;7.70;;;;;;;;;;5020098;28;20460;-70
2021/04/14 01:43:45;;;;;;;9.98;7.35;;;;;;;;;;5021935;28;21152;-70
2021/04/14 01:46:10;;;;;;;9.73;7.13;;;;;;;;;;5020441;28;20406;-70
2021/04/14 01:48:36;;;;;;;9.93;6.93;;;;;;;;;;5020669;28;20387;-70
2021/04/14 01:51:03;;;;;;;9.93;7.07;;;;;;;;;;5020508;28;20924;-70
2021/04/14 01:53:29;;;;;;;10.77;7.78;;;;;;;;;;5020836;28;20406;-70
2021/04/14 01:55:55;;;;;;;13.07;8.43;;;;;;;;;;5021569;28;20409;-70
2021/04/14 01:58:21;;;;;;;12.93;8.88;;;;;;;;;;5019991;28;20735;-69
2021/04/14 02:00:52;;;;;;;13.68;9.00;;;;;;;;;;5020611;28;20733;-71
2021/04/14 02:03:18;;;;;;;11.57;8.43;;;;;;;;;;5020635;28;20452;-71
2021/04/14 02:05:44;;;;;;;11.38;8.40;;;;;;;;;;5020440;28;20422;-70
2021/04/14 02:08:11;;;;;;;11.07;8.53;;;;;;;;;;5018773;28;20454;-70
2021/04/14 02:10:37;;;;;;;13.63;8.68;;;;;;;;;;5021759;28;21079;-71
2021/04/14 02:13:05;;;;;;;11.82;8.30;;;;;;;;;;5017882;28;20753;-70
2021/04/14 02:15:32;;;;;;;14.10;8.23;;;;;;;;;;5020141;28;20476;-70
2021/04/14 02:17:57;;;;;;;12.00;8.75;;;;;;;;;;5020249;28;20456;-70
2021/04/14 02:20:24;;;;;;;10.02;7.90;;;;;;;;;;5018949;28;20410;-70
2021/04/14 02:22:50;;;;;;;12.48;8.23;;;;;;;;;;5021089;28;20880;-70
2021/04/14 02:25:17;;;;;;;9.70;7.68;;;;;;;;;;5019365;28;20438;-70
2021/04/14 02:27:43;;;;;;;10.07;7.50;;;;;;;;;;5019930;28;20453;-70
2021/04/14 02:30:12;;;;;;;10.23;8.02;;;;;;;;;;5020745;28;20442;-70
2021/04/14 02:32:37;;;;;;;11.93;8.43;;;;;;;;;;5023917;28;20409;-70
2021/04/14 02:35:04;;;;;;;11.15;7.80;;;;;;;;;;5024337;28;20426;-70
2021/04/14 02:37:30;;;;;;;11.55;8.27;;;;;;;;;;5023656;28;20410;-70
2021/04/14 02:39:56;;;;;;;12.40;7.85;;;;;;;;;;5038267;28;20489;-70
2021/04/14 02:42:22;;;;;;;12.82;8.90;;;;;;;;;;5025164;28;20402;-70
2021/04/14 02:44:48;;;;;;;11.57;8.65;;;;;;;;;;5024213;28;20816;-70
2021/04/14 02:47:14;;;;;;;11.97;8.73;;;;;;;;;;5023870;28;20403;-70
2021/04/14 02:49:40;;;;;;;10.32;8.10;;;;;;;;;;5023269;28;20495;-70
2021/04/14 02:52:06;;;;;;;10.75;8.02;;;;;;;;;;5024903;28;20431;-70
2021/04/14 02:54:32;;;;;;;11.75;8.20;;;;;;;;;;5023389;28;20431;-70
2021/04/14 02:56:58;;;;;;;12.38;7.85;;;;;;;;;;5024031;28;20425;-71
2021/04/14 02:59:24;;;;;;;9.37;6.90;;;;;;;;;;5023458;28;20398;-69
2021/04/14 03:01:50;;;;;;;12.20;8.43;;;;;;;;;;5022156;28;20429;-69
2021/04/14 03:04:16;;;;;;;11.07;8.07;;;;;;;;;;5023497;28;20498;-70
2021/04/14 03:06:42;;;;;;;10.50;7.68;;;;;;;;;;5023260;28;20406;-71
2021/04/14 03:09:08;;;;;;;11.55;7.78;;;;;;;;;;5021665;28;21114;-70
2021/04/14 03:11:34;;;;;;;10.65;8.02;;;;;;;;;;5020575;28;20445;-70
2021/04/14 03:14:00;;;;;;;10.83;7.37;;;;;;;;;;5024638;28;20456;-70
2021/04/14 03:16:26;;;;;;;9.05;7.18;;;;;;;;;;5023747;28;20476;-70
2021/04/14 03:18:53;;;;;;;10.65;8.15;;;;;;;;;;5023406;28;20403;-70
2021/04/14 03:21:19;;;;;;;9.90;7.70;;;;;;;;;;5020665;28;20410;-70
2021/04/14 03:23:45;;;;;;;10.00;7.70;;;;;;;;;;5023982;28;20430;-70
2021/04/14 03:26:11;;;;;;;10.43;7.68;;;;;;;;;;5021381;28;20399;-71
2021/04/14 03:28:36;;;;;;;11.67;7.83;;;;;;;;;;5024152;28;20408;-69
2021/04/14 03:31:02;;;;;;;10.15;7.78;;;;;;;;;;5024390;28;20412;-70
2021/04/14 03:33:28;;;;;;;11.05;8.45;;;;;;;;;;5025577;28;20387;-70
2021/04/14 03:35:54;;;;;;;12.32;8.25;;;;;;;;;;5020964;28;20747;-71
2021/04/14 03:38:20;;;;;;;10.43;8.07;;;;;;;;;;5024209;28;20399;-69
2021/04/14 03:40:46;;;;;;;11.93;8.30;;;;;;;;;;5022737;28;20413;-70
2021/04/14 03:43:12;;;;;;;10.02;7.80;;;;;;;;;;5021356;28;20407;-69
2021/04/14 03:45:42;;;;;;;10.23;8.00;;;;;;;;;;5021678;28;20437;-70
2021/04/14 03:48:09;;;;;;;12.13;7.68;;;;;;;;;;5022742;28;20444;-69
2021/04/14 03:50:35;;;;;;;10.50;7.65;;;;;;;;;;5021780;28;21123;-70
2021/04/14 03:53:16;;;;;;;11.75;8.32;;;;;;;;;;5020555;28;20472;-69
2021/04/14 03:55:42;;;;;;;12.13;8.67;;;;;;;;;;5024030;28;20414;-71
2021/04/14 03:58:08;;;;;;;10.23;7.83;;;;;;;;;;5023435;28;22256;-70
2021/04/14 04:00:35;;;;;;;12.63;8.48;;;;;;;;;;5021993;28;20779;-70
2021/04/14 04:03:01;;;;;;;12.40;8.55;;;;;;;;;;5022052;28;20425;-70
2021/04/14 04:05:27;;;;;;;11.38;8.25;;;;;;;;;;5023277;28;20413;-70
2021/04/14 04:07:53;;;;;;;11.65;8.50;;;;;;;;;;5020949;28;20398;-70
2021/04/14 04:10:19;;;;;;;10.30;8.00;;;;;;;;;;5023145;28;20432;-70
2021/04/14 04:12:45;;;;;;;10.38;8.13;;;;;;;;;;5021064;28;20404;-69
2021/04/14 04:15:12;;;;;;;10.70;8.53;;;;;;;;;;5022316;28;20428;-69
2021/04/14 04:17:39;;;;;;;10.63;8.30;;;;;;;;;;5022097;28;20423;-70
2021/04/14 04:20:06;;;;;;;11.25;8.18;;;;;;;;;;5022916;28;20538;-69
2021/04/14 04:22:32;;;;;;;11.68;8.13;;;;;;;;;;5019595;28;20409;-70
2021/04/14 04:24:58;;;;;;;9.90;8.00;;;;;;;;;;5022840;28;20400;-70
2021/04/14 04:27:24;;;;;;;13.63;8.48;;;;;;;;;;5021238;28;20413;-71
2021/04/14 04:29:50;;;;;;;11.30;8.20;;;;;;;;;;5018911;28;20397;-70
2021/04/14 04:32:16;;;;;;;11.13;8.13;;;;;;;;;;5021667;28;20409;-70
2021/04/14 04:34:42;;;;;;;11.93;8.80;;;;;;;;;;5024220;28;20565;-70
2021/04/14 04:37:08;;;;;;;12.38;9.27;;;;;;;;;;5021918;28;20449;-70
2021/04/14 04:39:34;;;;;;;12.05;8.93;;;;;;;;;;5020836;28;20500;-70
2021/04/14 04:41:59;;;;;;;14.80;9.97;;;;;;;;;;5019636;28;20410;-70
2021/04/14 04:44:25;;;;;;;13.63;10.30;;;;;;;;;;5021736;28;20489;-70
2021/04/14 04:46:51;;;;;;;12.52;9.75;;;;;;;;;;5018784;28;20472;-70
2021/04/14 04:49:18;;;;;;;13.85;9.98;;;;;;;;;;5023873;28;20730;-70
2021/04/14 04:51:44;;;;;;;14.15;9.85;;;;;;;;;;5021021;28;20429;-71
2021/04/14 04:54:10;;;;;;;12.35;9.60;;;;;;;;;;5022356;28;20506;-69
2021/04/14 04:56:36;;;;;;;12.57;9.68;;;;;;;;;;5022165;28;21155;-69
2021/04/14 04:59:02;;;;;;;14.27;10.03;;;;;;;;;;5022170;28;20499;-70
2021/04/14 05:01:28;;;;;;;12.38;9.68;;;;;;;;;;5022819;28;20446;-70
2021/04/14 05:03:55;;;;;;;13.52;9.93;;;;;;;;;;5021394;28;20460;-70
2021/04/14 05:06:21;;;;;;;13.38;9.93;;;;;;;;;;5021886;28;20465;-70
2021/04/14 05:08:47;;;;;;;11.97;9.70;;;;;;;;;;5016094;28;20446;-69
2021/04/14 05:11:13;;;;;;;13.43;9.90;;;;;;;;;;5021797;28;20438;-70
2021/04/14 05:13:39;;;;;;;15.60;11.40;;;;;;;;;;5019749;28;20407;-69
2021/04/14 05:16:05;;;;;;;14.95;11.30;;;;;;;;;;5021162;28;20712;-70
2021/04/14 05:18:31;;;;;;;16.10;12.23;;;;;;;;;;5022471;28;20947;-70
2021/04/14 05:20:57;;;;;;;14.18;11.50;;;;;;;;;;5021895;28;20485;-71
2021/04/14 05:23:24;;;;;;;13.63;10.57;;;;;;;;;;5021087;28;20737;-70
2021/04/14 05:25:51;;;;;;;12.75;10.68;;;;;;;;;;5022196;28;20399;-70
2021/04/14 05:28:19;;;;;;;15.32;11.32;;;;;;;;;;5021764;28;20418;-70
2021/04/14 05:30:45;;;;;;;17.87;12.67;;;;;;;;;;5022562;28;20409;-70
2021/04/14 05:33:11;;;;;;;15.07;12.45;;;;;;;;;;5020817;28;20409;-69
2021/04/14 05:35:38;;;;;;;14.38;11.68;;;;;;;;;;5020432;28;20738;-70
2021/04/14 05:38:04;;;;;;;15.43;11.80;;;;;;;;;;5019305;28;20428;-70
2021/04/14 05:40:30;;;;;;;15.63;11.93;;;;;;;;;;5019775;28;20734;-70
2021/04/14 05:42:56;;;;;;;13.15;10.50;;;;;;;;;;5019333;28;20410;-70
2021/04/14 05:45:24;;;;;;;17.00;12.13;;;;;;;;;;5021953;28;20416;-70
2021/04/14 05:47:50;;;;;;;14.20;11.57;;;;;;;;;;5021744;28;20498;-70
2021/04/14 05:50:17;;;;;;;16.15;12.10;;;;;;;;;;5020769;28;20494;-71
2021/04/14 05:52:43;;;;;;;16.42;12.35;;;;;;;;;;5021159;28;20472;-71
2021/04/14 05:55:11;;;;;;;14.43;11.23;;;;;;;;;;5024896;28;20426;-70
2021/04/14 05:57:38;;;;;;;13.25;11.15;;;;;;;;;;5024909;28;20391;-70
2021/04/14 06:00:09;;;;;;;13.63;10.75;;;;;;;;;;5021782;28;20398;-70
2021/04/14 06:02:36;;;;;;;12.55;10.35;;;;;;;;;;5015113;28;20453;-70
2021/04/14 06:05:02;;;;;;;17.35;11.32;;;;;;;;;;5017645;28;20414;-70
2021/04/14 06:07:28;;;;;;;13.70;10.70;;;;;;;;;;5024083;28;20414;-70
2021/04/14 06:09:54;;;;;;;13.05;10.32;;;;;;;;;;5028250;28;20386;-71
2021/04/14 06:12:20;;;;;;;13.38;10.25;;;;;;;;;;5030095;28;20419;-70
2021/04/14 06:14:46;;;;;;;12.53;10.13;;;;;;;;;;5030814;28;20815;-70
2021/04/14 06:17:12;;;;;;;14.15;10.10;;;;;;;;;;5030341;28;20407;-69
2021/04/14 06:19:38;;;;;;;13.07;10.35;;;;;;;;;;5030840;28;20401;-70
2021/04/14 06:22:05;;;;;;;12.80;10.30;;;;;;;;;;5032900;28;20387;-70
2021/04/14 06:24:31;;;;;;;12.20;9.68;;;;;;;;;;5020821;28;20423;-70
2021/04/14 06:27:00;;;;;;;12.25;10.18;;;;;;;;;;5031481;28;20398;-70
2021/04/14 06:29:27;;;;;;;13.07;11.13;;;;;;;;;;5028488;28;20402;-70
2021/04/14 06:31:53;;;;;;;16.48;11.43;;;;;;;;;;5025244;28;20449;-71
2021/04/14 06:34:25;;;;;;;14.87;12.33;;;;;;;;;;5024181;28;20489;-72
2021/04/14 06:36:54;;;;;;;15.52;12.13;;;;;;;;;;5025882;28;20442;-69
2021/04/14 06:39:22;;;;;;;16.88;13.10;;;;;;;;;;5026246;28;20408;-70
2021/04/14 06:44:50;;;;;;;15.47;12.70;;;;;;;;;;5028553;28;20414;-69
2021/04/14 06:47:20;;;;;;;16.13;13.20;;;;;;;;;;5022484;28;20420;-70
2021/04/14 06:49:57;;;;;;;16.20;12.82;;;;;;;;;;5024487;28;21107;-69
2021/04/14 06:52:28;;;;;;;18.40;14.38;;;;;;;;;;5024366;28;20967;-70
2021/04/14 06:55:05;;;;;;;16.73;13.93;;;;;;;;;;5026300;28;20479;-71
2021/04/14 06:57:42;;;;;;;17.02;13.27;;;;;;;;;;5026183;28;20456;-72
2021/04/14 07:00:20;;;;;;;17.10;12.97;;;;;;;;;;5026439;28;20530;-71
2021/04/14 07:02:56;;;;;;;17.95;14.05;;;;;;;;;;5019212;28;20707;-73
2021/04/14 07:05:25;;;;;;;14.77;12.93;;;;;;;;;;5027254;28;20471;-70
2021/04/14 07:07:53;;;;;;;17.90;14.00;;;;;;;;;;5023124;28;20419;-70
2021/04/14 07:10:21;;;;;;;17.20;14.00;;;;;;;;;;5025914;28;20406;-70
2021/04/14 07:12:49;;;;;;;17.48;13.43;;;;;;;;;;5021726;28;20872;-71
2021/04/14 07:15:16;;;;;;;19.40;13.63;;;;;;;;;;5021878;28;20426;-70
2021/04/14 07:17:48;;;;;;;16.15;11.23;;;;;;;;;;5024727;28;20398;-70
2021/04/14 07:20:23;;;;;;;16.60;10.50;;;;;;;;;;5024965;28;20543;-70
2021/04/14 07:23:02;;;;;;;14.82;10.45;;;;;;;;;;5015858;28;20453;-71
2021/04/14 07:25:46;;;;;;;11.40;7.55;;;;;;;;;;5025938;28;20802;-70
2021/04/14 07:28:31;;;;;;;13.57;6.65;;;;;;;;;;5027980;28;20794;-70
2021/04/14 07:31:00;;;;;;;10.85;5.32;;;;;;;;;;5028054;28;20399;-71
2021/04/14 07:33:44;;;;;;;9.05;4.35;;;;;;;;;;5027464;28;20707;-70
2021/04/14 07:36:18;;;;;;;9.65;3.20;;;;;;;;;;5026682;28;20399;-70
2021/04/14 07:38:50;;;;;;;8.02;2.67;;;;;;;;;;5031185;28;20390;-70
2021/04/14 07:41:42;;;;;;;6.35;2.08;;;;;;;;;;5028443;28;20406;-70
2021/04/14 07:44:29;;;;;;;9.05;2.55;;;;;;;;;;5030488;28;20395;-70
2021/04/14 07:46:55;;;;;;;8.63;2.45;;;;;;;;;;5029049;28;20465;-70
2021/04/14 07:49:21;;;;;;;7.70;2.13;;;;;;;;;;5030132;28;20526;-70
2021/04/14 07:51:47;;;;;;;5.93;2.13;;;;;;;;;;5024411;28;20490;-70
2021/04/14 07:54:22;;;;;;;8.17;2.30;;;;;;;;;;5026540;28;20434;-69
2021/04/14 07:56:50;;;;;;;4.97;1.95;;;;;;;;;;5023230;28;20408;-71
2021/04/14 07:59:30;;;;;;;4.35;2.03;;;;;;;;;;5017114;28;20407;-71
2021/04/14 08:02:11;;;;;;;7.37;2.70;;;;;;;;;;5027973;28;20477;-71
2021/04/14 08:04:46;;;;;;;7.68;3.17;;;;;;;;;;5021945;28;21182;-70
2021/04/14 08:07:15;;;;;;;8.63;2.90;;;;;;;;;;5030146;28;20870;-71
2021/04/14 08:09:57;;;;;;;7.13;3.00;;;;;;;;;;5029407;28;20763;-71
2021/04/14 08:12:30;;;;;;;6.28;2.42;;;;;;;;;;5022688;28;20391;-70
2021/04/14 08:15:14;;;;;;;6.63;2.60;;;;;;;;;;5020743;28;20481;-71
2021/04/14 08:17:40;;;;;;;7.10;2.50;;;;;;;;;;5029599;28;20653;-70
2021/04/14 08:20:08;;;;;;;6.75;2.53;;;;;;;;;;5026921;28;20948;-71
2021/04/14 08:22:34;;;;;;;8.10;2.42;;;;;;;;;;5027119;28;20391;-71
2021/04/14 08:25:02;;;;;;;5.15;2.13;;;;;;;;;;5030400;28;20375;-70
2021/04/14 08:27:35;;;;;;;7.43;2.15;;;;;;;;;;5030423;28;20382;-71
2021/04/14 08:30:01;;;;;;;5.25;2.00;;;;;;;;;;5024932;28;20427;-70
2021/04/14 08:32:28;;;;;;;5.57;1.90;;;;;;;;;;5020172;28;21169;-71
2021/04/14 08:34:59;;;;;;;4.68;1.60;;;;;;;;;;5029542;28;20494;-70
2021/04/14 08:37:27;;;;;;;8.15;1.85;;;;;;;;;;5029665;28;20391;-71
2021/04/14 08:40:05;;;;;;;6.75;2.00;;;;;;;;;;5029780;28;20421;-70
2021/04/14 08:42:33;;;;;;;6.18;2.10;;;;;;;;;;5019562;28;20431;-70
2021/04/14 08:45:09;;;;;;;6.60;2.00;;;;;;;;;;5023765;28;20407;-70
2021/04/14 08:47:36;;;;;;;7.18;2.33;;;;;;;;;;5026566;28;20493;-70
2021/04/14 08:50:30;;;;;;;6.35;2.45;;;;;;;;;;5030381;28;21123;-70
2021/04/14 08:52:57;;;;;;;9.15;2.25;;;;;;;;;;5013898;28;20413;-70
2021/04/14 08:55:26;;;;;;;6.93;2.95;;;;;;;;;;5019277;28;20502;-71
2021/04/14 08:57:53;;;;;;;17.63;9.13;;;;;;;;;;5028828;28;20884;-71
2021/04/14 09:00:20;;;;;;;81.50;49.72;;;;;;;;;;5028092;28;20418;-69
2021/04/14 09:02:46;;;;;;;46.20;26.42;;;;;;;;;;5028007;28;20506;-69
2021/04/14 09:05:16;;;;;;;22.67;13.13;;;;;;;;;;5029531;28;20792;-69
2021/04/14 09:07:42;;;;;;;16.60;7.83;;;;;;;;;;5027928;28;20402;-69
2021/04/14 09:10:10;;;;;;;11.88;5.70;;;;;;;;;;5029924;28;20409;-70
2021/04/14 09:12:48;;;;;;;10.68;5.80;;;;;;;;;;5028474;28;20395;-69
2021/04/14 09:15:16;;;;;;;13.48;7.55;;;;;;;;;;5024698;28;20478;-70
2021/04/14 09:17:43;;;;;;;11.65;5.80;;;;;;;;;;5028537;28;20450;-70
2021/04/14 09:20:09;;;;;;;7.53;3.15;;;;;;;;;;5029253;28;20666;-70
2021/04/14 09:22:35;;;;;;;7.18;2.45;;;;;;;;;;5028959;28;20427;-70
2021/04/14 09:25:04;;;;;;;7.43;2.72;;;;;;;;;;5027157;28;20494;-70
2021/04/14 09:27:36;;;;;;;7.27;2.00;;;;;;;;;;5028063;28;20981;-70
2021/04/14 09:30:27;;;;;;;9.00;2.30;;;;;;;;;;5026920;28;20441;-70
2021/04/14 09:33:01;;;;;;;6.28;1.90;;;;;;;;;;5028740;28;20407;-69
2021/04/14 09:35:29;;;;;;;10.32;2.38;;;;;;;;;;5025663;28;20461;-70
2021/04/14 09:38:07;;;;;;;11.43;3.03;;;;;;;;;;5026668;28;20922;-69
2021/04/14 09:40:35;;;;;;;8.00;2.75;;;;;;;;;;5028767;28;20430;-69
2021/04/14 09:43:01;;;;;;;6.15;1.92;;;;;;;;;;5028639;28;20909;-69
2021/04/14 09:45:27;;;;;;;7.38;2.40;;;;;;;;;;5028195;28;20398;-70
2021/04/14 09:47:54;;;;;;;5.65;1.98;;;;;;;;;;5027610;28;20407;-70
2021/04/14 09:50:21;;;;;;;4.82;1.80;;;;;;;;;;5018927;28;20407;-69
2021/04/14 09:52:54;;;;;;;5.07;2.05;;;;;;;;;;5028617;28;20411;-70
2021/04/14 09:55:27;;;;;;;4.32;1.80;;;;;;;;;;5027761;28;20467;-70
2021/04/14 09:57:53;;;;;;;5.63;1.80;;;;;;;;;;5029110;28;20368;-70
2021/04/14 10:00:30;;;;;;;6.95;2.10;;;;;;;;;;5026732;28;20470;-69
2021/04/14 10:02:58;;;;;;;4.32;1.60;;;;;;;;;;5026416;28;20407;-69
2021/04/14 10:05:31;;;;;;;3.83;1.80;;;;;;;;;;5027262;28;20914;-69
2021/04/14 10:08:01;;;;;;;4.00;1.67;;;;;;;;;;5024994;28;20437;-70
2021/04/14 10:10:28;;;;;;;4.13;1.70;;;;;;;;;;5026967;28;20411;-69
2021/04/14 10:12:56;;;;;;;4.57;1.63;;;;;;;;;;5028578;28;20441;-70
2021/04/14 10:15:32;;;;;;;3.95;1.50;;;;;;;;;;5024975;28;20443;-69
2021/04/14 10:18:04;;;;;;;5.97;1.55;;;;;;;;;;5028805;28;20421;-70
2021/04/14 10:20:33;;;;;;;5.20;1.50;;;;;;;;;;5023183;28;20912;-70
2021/04/14 10:23:00;;;;;;;4.38;1.30;;;;;;;;;;5026442;28;20988;-70
2021/04/14 10:25:25;;;;;;;4.10;1.27;;;;;;;;;;5027098;28;20430;-70
2021/04/14 10:27:58;;;;;;;5.25;1.25;;;;;;;;;;5026959;28;20411;-70
2021/04/14 10:30:24;;;;;;;4.47;0.90;;;;;;;;;;5029299;28;20425;-69
2021/04/14 10:32:52;;;;;;;3.97;1.08;;;;;;;;;;5029124;28;20383;-70
2021/04/14 10:35:20;;;;;;;3.08;0.95;;;;;;;;;;5027436;28;20419;-69
2021/04/14 10:37:48;;;;;;;3.15;0.93;;;;;;;;;;5027108;28;20407;-69
2021/04/14 10:40:19;;;;;;;2.67;0.88;;;;;;;;;;5028357;28;20425;-70
2021/04/14 10:42:46;;;;;;;4.63;1.10;;;;;;;;;;5018693;28;20510;-70
2021/04/14 10:45:13;;;;;;;4.33;1.20;;;;;;;;;;5023004;28;20465;-70
2021/04/14 10:47:40;;;;;;;3.58;1.23;;;;;;;;;;5027799;28;20407;-70
2021/04/14 10:50:27;;;;;;;2.85;0.95;;;;;;;;;;5026460;28;20399;-69
2021/04/14 10:53:06;;;;;;;3.05;0.98;;;;;;;;;;5028136;28;20415;-70
2021/04/14 10:55:38;;;;;;;2.40;1.05;;;;;;;;;;5030765;28;20419;-70
2021/04/14 10:58:05;;;;;;;3.42;1.02;;;;;;;;;;5031581;28;20425;-72
2021/04/14 11:00:33;;;;;;;3.78;1.20;;;;;;;;;;5029218;28;20407;-71
2021/04/14 11:03:07;;;;;;;5.97;1.58;;;;;;;;;;5023780;28;20741;-70
2021/04/14 11:05:35;;;;;;;7.82;1.40;;;;;;;;;;5031339;28;20410;-70
2021/04/14 11:08:01;;;;;;;4.68;1.10;;;;;;;;;;5029860;28;20413;-71
2021/04/14 11:10:29;;;;;;;2.70;1.13;;;;;;;;;;5026003;28;20845;-71
2021/04/14 11:12:56;;;;;;;3.10;1.10;;;;;;;;;;5028241;28;20426;-70
2021/04/14 11:15:24;;;;;;;3.33;1.00;;;;;;;;;;5031996;28;20457;-71
2021/04/14 11:18:01;;;;;;;2.75;1.00;;;;;;;;;;5031343;28;20399;-71
2021/04/14 11:20:52;;;;;;;4.00;1.20;;;;;;;;;;5028064;28;20383;-70
2021/04/14 11:23:20;;;;;;;5.32;1.40;;;;;;;;;;5030797;28;20442;-70
2021/04/14 11:25:47;;;;;;;4.72;1.20;;;;;;;;;;5032168;28;20379;-71
2021/04/14 11:28:14;;;;;;;4.93;1.20;;;;;;;;;;5023310;28;20931;-70
2021/04/14 11:30:49;;;;;;;3.75;1.20;;;;;;;;;;5024367;28;20451;-70
2021/04/14 11:33:17;;;;;;;5.53;1.48;;;;;;;;;;5033479;28;20872;-70
2021/04/14 11:35:45;;;;;;;3.95;1.20;;;;;;;;;;5038650;28;20940;-70
2021/04/14 11:38:28;;;;;;;3.45;1.00;;;;;;;;;;5020728;28;20407;-71
2021/04/14 11:40:54;;;;;;;2.53;1.00;;;;;;;;;;5028974;28;20413;-71
2021/04/14 11:43:32;;;;;;;3.42;1.00;;;;;;;;;;5024166;28;20418;-70
2021/04/14 11:46:03;;;;;;;5.33;1.40;;;;;;;;;;5027220;28;20423;-71
2021/04/14 11:48:33;;;;;;;6.30;1.27;;;;;;;;;;5028371;28;20447;-70
2021/04/14 11:51:09;;;;;;;5.95;1.45;;;;;;;;;;5027131;28;20406;-71
2021/04/14 11:53:46;;;;;;;3.90;1.38;;;;;;;;;;5025282;28;20836;-69
2021/04/14 11:56:22;;;;;;;5.32;1.38;;;;;;;;;;5026775;28;20443;-69
2021/04/14 11:58:49;;;;;;;8.18;1.70;;;;;;;;;;5030509;28;20379;-69
2021/04/14 12:01:31;;;;;;;5.00;1.80;;;;;;;;;;5026905;28;20395;-69
2021/04/14 12:04:09;;;;;;;5.03;1.50;;;;;;;;;;5028240;28;20394;-69
2021/04/14 12:06:36;;;;;;;5.93;1.60;;;;;;;;;;5035659;28;20403;-71
2021/04/14 12:09:02;;;;;;;5.78;1.40;;;;;;;;;;5024174;28;20453;-70
2021/04/14 12:11:28;;;;;;;5.60;1.50;;;;;;;;;;5029549;28;20391;-70
2021/04/14 12:13:54;;;;;;;4.25;1.48;;;;;;;;;;5037556;28;20404;-70
2021/04/14 12:16:20;;;;;;;5.72;1.50;;;;;;;;;;5023674;28;20905;-70
2021/04/14 12:18:46;;;;;;;3.97;1.27;;;;;;;;;;5022392;28;20901;-71
2021/04/14 12:21:12;;;;;;;4.03;1.20;;;;;;;;;;5028977;28;20407;-69
2021/04/14 12:23:38;;;;;;;3.88;1.23;;;;;;;;;;5019469;28;21096;-70
2021/04/14 12:26:05;;;;;;;3.90;1.13;;;;;;;;;;5021781;28;20441;-69
2021/04/14 12:28:31;;;;;;;3.75;1.20;;;;;;;;;;5027645;28;21170;-70
2021/04/14 12:30:57;;;;;;;4.43;1.20;;;;;;;;;;5023546;28;20399;-70
2021/04/14 12:33:24;;;;;;;3.53;1.02;;;;;;;;;;5015995;28;20406;-69
2021/04/14 12:35:51;;;;;;;4.78;1.40;;;;;;;;;;5026079;28;20423;-70
2021/04/14 12:38:17;;;;;;;5.07;1.58;;;;;;;;;;5029259;28;20903;-70
2021/04/14 12:40:43;;;;;;;7.20;2.13;;;;;;;;;;5028144;28;20410;-70
2021/04/14 12:43:09;;;;;;;6.57;2.03;;;;;;;;;;5030491;28;20368;-70
2021/04/14 12:45:37;;;;;;;8.45;2.30;;;;;;;;;;5029017;28;20425;-69
2021/04/14 12:48:05;;;;;;;5.13;1.70;;;;;;;;;;5028427;28;20394;-70
2021/04/14 12:50:31;;;;;;;8.30;2.00;;;;;;;;;;5025332;28;21045;-69
2021/04/14 12:52:58;;;;;;;7.63;1.92;;;;;;;;;;5022158;28;20391;-69
2021/04/14 12:55:27;;;;;;;4.43;1.50;;;;;;;;;;5025688;28;20908;-69
2021/04/14 12:57:57;;;;;;;6.97;1.80;;;;;;;;;;5028626;28;20770;-69
2021/04/14 13:00:25;;;;;;;6.43;1.73;;;;;;;;;;5025004;28;20427;-69
2021/04/14 13:03:11;;;;;;;4.72;1.70;;;;;;;;;;5024576;28;20402;-69
2021/04/14 13:05:46;;;;;;;6.05;1.45;;;;;;;;;;4999170;28;20434;-69
2021/04/14 13:08:19;;;;;;;6.13;1.40;;;;;;;;;;5024724;28;21030;-69
2021/04/14 13:11:06;;;;;;;6.47;1.48;;;;;;;;;;5024362;28;20896;-70
2021/04/14 13:13:32;;;;;;;4.63;1.40;;;;;;;;;;5019540;28;20428;-69
2021/04/14 13:16:09;;;;;;;5.00;1.60;;;;;;;;;;5022105;28;20433;-69
2021/04/14 13:18:37;;;;;;;6.43;1.47;;;;;;;;;;5025771;28;20415;-70
2021/04/14 13:21:10;;;;;;;4.95;1.33;;;;;;;;;;5020379;28;20402;-70
2021/04/14 13:23:43;;;;;;;5.87;1.50;;;;;;;;;;5026129;28;20415;-70
2021/04/14 13:26:13;;;;;;;4.37;1.23;;;;;;;;;;5027672;28;20379;-70
2021/04/14 13:28:44;;;;;;;4.78;1.35;;;;;;;;;;5027358;28;20413;-69
2021/04/14 13:31:18;;;;;;;5.78;1.30;;;;;;;;;;5017126;28;20422;-69
2021/04/14 13:33:47;;;;;;;7.05;1.70;;;;;;;;;;5028117;28;20421;-69
2021/04/14 13:36:19;;;;;;;6.57;1.70;;;;;;;;;;5029123;28;20430;-69
2021/04/14 13:38:47;;;;;;;5.60;1.40;;;;;;;;;;5027797;28;20426;-70
2021/04/14 13:41:31;;;;;;;5.60;1.52;;;;;;;;;;5028406;28;20941;-70
2021/04/14 13:44:02;;;;;;;4.10;1.50;;;;;;;;;;5022198;28;20375;-70
2021/04/14 13:46:27;;;;;;;6.05;1.83;;;;;;;;;;5018679;28;20486;-70
2021/04/14 13:49:02;;;;;;;5.10;1.50;;;;;;;;;;5023555;28;20494;-69
2021/04/14 13:51:39;;;;;;;8.13;1.70;;;;;;;;;;5020207;28;20451;-70
2021/04/14 13:54:05;;;;;;;5.13;1.70;;;;;;;;;;5023300;28;20889;-69
2021/04/14 13:56:31;;;;;;;6.32;1.83;;;;;;;;;;5023761;28;20464;-69
2021/04/14 13:59:05;;;;;;;4.60;1.52;;;;;;;;;;5026601;28;20401;-70
2021/04/14 14:01:34;;;;;;;6.40;2.05;;;;;;;;;;5021703;28;20421;-70
2021/04/14 14:04:00;;;;;;;4.70;1.50;;;;;;;;;;5025951;28;20452;-70
2021/04/14 14:06:38;;;;;;;5.07;1.60;;;;;;;;;;5022001;28;20860;-69
2021/04/14 14:09:05;;;;;;;5.15;1.45;;;;;;;;;;5026123;28;20484;-70
2021/04/14 14:11:34;;;;;;;5.65;1.50;;;;;;;;;;5026052;28;20399;-70
2021/04/14 14:14:01;;;;;;;5.93;1.57;;;;;;;;;;5021248;28;20426;-70
2021/04/14 14:16:41;;;;;;;4.28;1.38;;;;;;;;;;5019125;28;20544;-70
2021/04/14 14:19:16;;;;;;;3.70;1.23;;;;;;;;;;5022696;28;21173;-70
2021/04/14 14:21:43;;;;;;;3.15;1.10;;;;;;;;;;5024524;28;20406;-69
2021/04/14 14:24:10;;;;;;;5.35;1.45;;;;;;;;;;5023139;28;20481;-69
2021/04/14 14:26:36;;;;;;;2.75;1.00;;;;;;;;;;5025417;28;20406;-70
2021/04/14 14:29:04;;;;;;;4.07;1.10;;;;;;;;;;5027349;28;20402;-69
2021/04/14 14:31:30;;;;;;;7.03;1.52;;;;;;;;;;5013715;28;20400;-70
2021/04/14 14:33:58;;;;;;;4.35;1.10;;;;;;;;;;5028427;28;20879;-68
2021/04/14 14:36:26;;;;;;;3.97;1.30;;;;;;;;;;5020823;28;20412;-69
2021/04/14 14:39:00;;;;;;;4.40;1.20;;;;;;;;;;5024157;28;20441;-69
2021/04/14 14:41:28;;;;;;;4.22;1.08;;;;;;;;;;5025058;28;20408;-68
2021/04/14 14:43:58;;;;;;;3.35;1.10;;;;;;;;;;5020305;28;20913;-70
2021/04/14 14:46:27;;;;;;;2.70;1.10;;;;;;;;;;5020719;28;20397;-69
2021/04/14 14:48:54;;;;;;;3.20;1.03;;;;;;;;;;5022540;28;20553;-71